CW2939 Malaga ES current weather conditions

sailwx.info

Wind from 132 at 7 knots gusting 13

Air temperature 22.8° C
Dewpoint 12.4° C

Last reported at 2018-May-22 13:09 UTC.
Time now 2018-May-22 14:03 UTC

Location: N 36°52' W 004°09'.
View on Google Maps.

See reports from other nearby stations

  
Tides and Currents Weather Stations Pressure Air Temp Water Temp Dewpoint Dewpoint Depression Visibility Wind Speed Wind Dir Waves Ship Positions
date/time (UTC)wind fromknots sea level pressurealtimeterstation pressurevisibilityair tempwater tempwave heightnotes
2018-May-22 13:09 132 7 gusting 13 22.8
2018-May-22 13:04 138 6 gusting 12 22.8
2018-May-22 12:59 150 4 gusting 13 22.8
2018-May-22 12:54 136 6 gusting 12 22.8
2018-May-22 12:49 127 7 gusting 13 22.8
2018-May-22 12:24 124 9 gusting 14 22.8
2018-May-22 12:14 119 1 gusting 11 23.3
2018-May-22 12:09 148 7 gusting 12 23.3
2018-May-22 12:04 127 6 gusting 13 23.3
2018-May-22 11:59 146 0 gusting 6 23.3
2018-May-22 11:54 127 0 gusting 13 23.3
2018-May-22 11:49 143 8 gusting 15 23.3
2018-May-22 11:44 134 6 gusting 11 23.9
2018-May-22 11:39 135 5 gusting 13 23.9
2018-May-22 11:34 135 6 gusting 10 23.9
2018-May-22 11:29 141 4 gusting 10 23.9
2018-May-22 11:24 141 1 gusting 8 24.4
2018-May-22 11:19 130 4 gusting 12 24.4
2018-May-22 11:14 157 4 gusting 10 24.4
2018-May-22 11:09 149 2 gusting 10 25.0
2018-May-22 11:04 142 4 gusting 10 25.0
2018-May-22 10:54 137 3 gusting 8 25.0
2018-May-22 10:49 134 2 gusting 8 24.4
2018-May-22 10:44 117 3 gusting 7 24.4
2018-May-22 10:39 198 2 gusting 6 23.9
2018-May-22 10:34 145 4 gusting 10 23.3
2018-May-22 10:19 139 6 gusting 10 23.3
2018-May-22 10:09 148 0 gusting 8 23.3
2018-May-22 10:04 108 4 gusting 7 22.8
2018-May-22 09:59 141 5 gusting 8 22.2
2018-May-22 09:54 143 6 gusting 10 22.2
2018-May-22 09:39 135 5 gusting 11 22.2
2018-May-22 09:34 139 5 gusting 11 22.2
2018-May-22 09:29 138 3 gusting 10 22.8
2018-May-22 09:14 150 4 gusting 10 23.9
2018-May-22 08:59 103 1 gusting 4 23.3
2018-May-22 08:54 206 1 gusting 6 23.3
2018-May-22 08:49 125 3 gusting 6 23.3
2018-May-22 08:39 136 2 gusting 7 22.8
2018-May-22 08:29 130 4 gusting 8 22.2
2018-May-22 08:24 121 4 gusting 7 22.2
2018-May-22 08:19 147 2 gusting 6 22.2
2018-May-22 08:14 151 2 gusting 5 22.2
2018-May-22 08:09 137 3 gusting 6 22.2
2018-May-22 08:04 114 4 gusting 6 22.2
2018-May-22 07:49 079 2 gusting 5 22.2
2018-May-22 07:44 046 0 gusting 2 21.7
2018-May-22 07:34 040 1 gusting 2 21.1
2018-May-22 07:29 025 20.6
2018-May-22 07:24 025 0 gusting 2 20.6
2018-May-22 07:14 024 19.4
2018-May-22 07:09 024 0 gusting 2 18.9
2018-May-22 07:04 022 2 gusting 4 18.3
2018-May-22 06:59 022 1 gusting 5 17.8
2018-May-22 06:54 020 3 gusting 6 17.8
2018-May-22 06:44 005 1 gusting 5 16.7
2018-May-22 06:34 014 2 gusting 6 15.6
2018-May-22 06:29 327 15.6
2018-May-22 06:19 320 15.0
2018-May-22 06:14 320 0 gusting 5 15.0
2018-May-22 06:09 320 2 gusting 4 15.0
2018-May-22 05:59 320 4 gusting 4 14.4
2018-May-22 05:54 320 0 gusting 4 13.9
2018-May-22 05:39 321 1 gusting 5 13.9
2018-May-22 05:34 321 4 gusting 6 13.9
2018-May-22 05:29 330 3 gusting 6 13.9
2018-May-22 05:19 021 0 gusting 2 13.9
2018-May-22 05:14 021 13.9
2018-May-22 05:09 021 13.9
2018-May-22 05:04 021 14.4
2018-May-22 04:54 026 4 gusting 5 14.4
2018-May-22 04:49 029 2 gusting 4 14.4
2018-May-22 04:44 030 2 gusting 4 15.0
2018-May-22 04:39 030 15.0
2018-May-22 04:19 013 1 gusting 6 14.4
2018-May-22 04:14 025 4 gusting 7 14.4
2018-May-22 03:59 284 1 gusting 5 13.9
2018-May-22 03:54 281 2 gusting 4 13.9
2018-May-22 03:49 281 2 gusting 4 13.9
2018-May-22 03:39 279 5 gusting 6 13.9
2018-May-22 03:34 308 3 gusting 5 13.9
2018-May-22 03:29 308 2 gusting 5 13.9
2018-May-22 03:24 308 3 gusting 4 13.9
2018-May-22 03:19 309 4 gusting 6 13.9
2018-May-22 03:14 304 2 gusting 2 13.9
2018-May-22 03:09 304 1 gusting 5 13.9
2018-May-22 03:04 304 2 gusting 5 14.4
2018-May-22 02:44 302 13.9
2018-May-22 02:39 302 1 gusting 2 13.9
2018-May-22 02:34 302 1 gusting 2 13.9
2018-May-22 02:29 302 1 gusting 2 13.9
2018-May-22 02:04 302 2 gusting 4 13.9
2018-May-22 01:59 302 2 gusting 5 13.9
2018-May-22 01:54 302 4 gusting 5 13.9
2018-May-22 01:49 306 2 gusting 5 13.9
2018-May-22 01:39 306 13.9
2018-May-22 01:29 306 13.9
2018-May-22 01:24 306 1 gusting 4 14.4
2018-May-22 01:19 306 1 gusting 4 14.4
2018-May-22 01:14 306 0 gusting 2 14.4
2018-May-22 01:04 306 0 gusting 2 14.4
2018-May-22 00:59 306 3 gusting 5 14.4
2018-May-22 00:54 308 3 gusting 4 15.0
2018-May-22 00:49 308 2 gusting 4 15.0
2018-May-22 00:39 309 1 gusting 2 15.0
2018-May-22 00:34 309 0 gusting 2 15.0
2018-May-22 00:29 309 2 gusting 4 15.0
2018-May-22 00:19 301 14.4
2018-May-22 00:14 301 14.4
2018-May-22 00:09 301 15.0
2018-May-22 00:04 301 15.0
2018-May-21 23:59 301 1 gusting 2 15.0
2018-May-21 23:54 301 15.0
2018-May-21 23:49 301 15.0
2018-May-21 23:44 301 15.0
2018-May-21 23:34 301 15.0
2018-May-21 23:29 301 15.0
2018-May-21 23:19 301 15.0
2018-May-21 23:14 301 15.0
2018-May-21 23:09 301 15.6
2018-May-21 23:04 301 15.6
2018-May-21 22:59 301 15.6
2018-May-21 22:54 301 15.6
2018-May-21 22:49 301 15.6
2018-May-21 22:39 301 15.6
2018-May-21 22:29 301 1 gusting 2 15.6
2018-May-21 22:24 302 2 gusting 4 15.6
2018-May-21 22:19 302 0 gusting 2 15.6
2018-May-21 22:14 302 2 gusting 4 15.6
2018-May-21 22:09 303 2 gusting 4 15.6
2018-May-21 22:04 304 3 gusting 5 15.6
2018-May-21 21:59 303 3 gusting 6 15.6
2018-May-21 21:49 310 4 gusting 6 16.1
2018-May-21 21:44 312 4 gusting 5 16.1
2018-May-21 21:39 310 1 gusting 6 16.1
2018-May-21 21:34 311 5 gusting 6 16.1
2018-May-21 21:29 313 4 gusting 6 16.1
2018-May-21 21:24 321 2 gusting 6 16.1
2018-May-21 21:19 320 4 gusting 5 16.1
2018-May-21 21:04 324 2 gusting 5 16.7
2018-May-21 20:59 325 2 gusting 5 16.7
2018-May-21 20:54 325 3 gusting 6 16.7
2018-May-21 20:49 323 4 gusting 7 16.7
2018-May-21 20:44 309 6 gusting 8 16.7
2018-May-21 20:39 327 3 gusting 6 16.7
2018-May-21 20:29 324 16.7
2018-May-21 20:19 324 1 gusting 2 17.2
2018-May-21 20:14 324 2 gusting 6 17.2
2018-May-21 19:59 189 17.8
2018-May-21 19:54 189 17.8
2018-May-21 19:49 189 18.3
2018-May-21 19:44 189 18.3
2018-May-21 19:24 169 2 gusting 4 18.9
2018-May-21 19:19 156 1 gusting 2 18.9
2018-May-21 19:14 156 1 gusting 4 18.9
2018-May-21 19:09 153 2 gusting 5 18.9
2018-May-21 19:04 149 2 gusting 4 18.9
2018-May-21 18:59 144 2 gusting 5 18.9
2018-May-21 18:54 140 2 gusting 4 18.9
2018-May-21 18:49 140 2 gusting 5 19.4
2018-May-21 18:39 140 4 gusting 6 19.4
2018-May-21 18:34 134 5 gusting 6 19.4
2018-May-21 18:29 138 5 gusting 6 19.4
2018-May-21 18:24 132 5 gusting 7 19.4
2018-May-21 18:14 132 5 gusting 7 19.4
2018-May-21 18:09 131 6 gusting 10 20.0
2018-May-21 18:04 125 5 gusting 7 20.0
2018-May-21 17:54 123 6 gusting 10 20.0
2018-May-21 17:44 126 5 gusting 7 20.0
2018-May-21 17:39 137 6 gusting 8 20.0
2018-May-21 17:34 129 7 gusting 10 20.0
2018-May-21 17:29 140 5 gusting 8 20.0
2018-May-21 17:19 126 5 gusting 7 20.0
2018-May-21 17:09 128 4 gusting 7 20.6
2018-May-21 17:04 129 6 gusting 10 20.6
2018-May-21 16:54 129 4 gusting 7 20.6
2018-May-21 16:49 147 5 gusting 8 20.6
2018-May-21 16:39 133 6 gusting 8 20.6
2018-May-21 16:34 132 4 gusting 7 20.6
2018-May-21 16:29 144 4 gusting 5 21.1
2018-May-21 16:24 143 0 gusting 6 21.7
2018-May-21 16:09 327 21.7
2018-May-21 16:04 327 1 gusting 2 21.7
2018-May-21 15:54 328 21.7
2018-May-21 15:49 328 21.7
2018-May-21 15:44 327 0 gusting 2 21.7
2018-May-21 15:39 327 21.1
2018-May-21 15:29 326 21.1
2018-May-21 15:19 327 0 gusting 4 21.1
2018-May-21 15:14 329 20.6
2018-May-21 15:09 329 0 gusting 2 20.6
2018-May-21 15:04 329 1 gusting 2 20.6
2018-May-21 14:59 329 1 gusting 4 20.0
2018-May-21 14:44 329 19.4
2018-May-21 14:39 329 19.4
2018-May-21 14:34 329 18.9
2018-May-21 14:29 329 18.9
2018-May-21 14:24 329 18.9
2018-May-21 14:09 336 2 gusting 4 18.3
2018-May-21 14:04 338 3 gusting 5 17.8
2018-May-21 13:59 005 1 gusting 5 17.8
2018-May-21 13:54 005 1 gusting 5 17.8
2018-May-21 13:49 016 1 gusting 6 17.8
2018-May-21 13:44 005 0 gusting 5 17.8
2018-May-21 13:29 338 2 gusting 6 18.3
2018-May-21 13:24 336 5 gusting 6 18.9
2018-May-21 13:19 335 3 gusting 7 19.4
2018-May-21 13:14 350 3 gusting 5 19.4
2018-May-21 13:09 051 19.4
2018-May-21 13:04 044 2 gusting 6 19.4
2018-May-21 12:59 309 8 gusting 12 20.0
2018-May-21 12:54 044 1 gusting 6 20.0
2018-May-21 12:44 098 4 gusting 8 20.0
2018-May-21 12:29 124 9 gusting 14 21.1
2018-May-21 12:24 156 12 gusting 20 21.1
2018-May-21 12:19 125 6 gusting 19 21.7
2018-May-21 12:14 138 13 gusting 18 22.2
2018-May-21 12:09 135 9 gusting 13 22.2
2018-May-21 12:04 140 8 gusting 13 21.7
2018-May-21 11:59 136 5 gusting 12 21.7
2018-May-21 11:54 136 6 gusting 13 21.1
2018-May-21 11:49 138 4 gusting 10 21.1
2018-May-21 11:44 130 6 gusting 12 20.6
2018-May-21 11:39 140 5 gusting 10 21.1
2018-May-21 11:34 132 5 gusting 13 21.1
2018-May-21 11:29 135 6 gusting 14 21.1
2018-May-21 11:24 127 5 gusting 13 21.1
2018-May-21 11:14 140 10 gusting 17 21.7
2018-May-21 11:09 147 7 gusting 13 21.7
2018-May-21 11:04 137 7 gusting 15 21.1
2018-May-21 10:59 141 11 gusting 19 21.7
2018-May-21 10:54 134 8 gusting 14 21.7
2018-May-21 10:49 154 8 gusting 15 21.7
2018-May-21 10:44 138 5 gusting 12 21.7
2018-May-21 10:34 134 6 gusting 10 21.7
2018-May-21 10:24 147 8 gusting 13 22.2
2018-May-21 10:19 123 7 gusting 11 22.2
2018-May-21 10:14 154 6 gusting 12 22.2
2018-May-21 10:09 132 7 gusting 12 22.2
2018-May-21 10:04 114 6 gusting 10 22.2
2018-May-21 09:54 145 5 gusting 8 22.2
2018-May-21 09:49 133 5 gusting 10 22.2
2018-May-21 09:44 135 5 gusting 8 22.2
2018-May-21 09:39 114 5 gusting 8 21.7
2018-May-21 09:34 141 4 gusting 8 22.2
2018-May-21 09:29 131 3 gusting 7 22.8
2018-May-21 09:24 152 3 gusting 6 22.8
2018-May-21 09:19 098 2 gusting 6 22.8
2018-May-21 09:14 104 3 gusting 7 22.8
2018-May-21 09:04 128 1 gusting 6 22.8
2018-May-21 08:59 134 2 gusting 6 22.2
2018-May-21 08:54 163 0 gusting 4 21.7
2018-May-21 08:39 157 2 gusting 6 21.7
2018-May-21 08:34 084 2 gusting 5 21.1
2018-May-21 08:19 067 0 gusting 2 21.1
2018-May-21 08:14 067 0 gusting 2 20.6
2018-May-21 07:59 066 2 gusting 4 20.0
2018-May-21 07:54 045 1 gusting 4 19.4
2018-May-21 07:49 296 19.4
2018-May-21 07:44 296 18.9
2018-May-21 07:39 296 18.9
2018-May-21 07:34 296 18.9
2018-May-21 07:24 295 18.3
2018-May-21 07:14 294 17.8
2018-May-21 07:09 294 17.8
2018-May-21 07:04 294 17.2
2018-May-21 06:59 294 16.7
2018-May-21 06:54 294 16.1
2018-May-21 06:49 294 16.1
2018-May-21 06:29 294 15.0
2018-May-21 06:19 294 14.4
2018-May-21 06:04 294 13.9
2018-May-21 05:59 294 13.9
2018-May-21 05:49 294 13.9
2018-May-21 05:44 294 13.9
2018-May-21 05:34 294 0 gusting 2 13.9
2018-May-21 05:24 294 2 gusting 4 13.9
2018-May-21 05:19 294 2 gusting 4 13.9
2018-May-21 05:14 294 0 gusting 2 13.9
2018-May-21 05:09 293 0 gusting 2 13.9
2018-May-21 05:04 293 0 gusting 2 13.9
2018-May-21 04:59 293 0 gusting 2 13.9
2018-May-21 04:54 293 0 gusting 2 13.9
2018-May-21 04:49 293 1 gusting 2 13.9
2018-May-21 04:34 293 13.9
2018-May-21 04:29 293 13.9
2018-May-21 04:24 293 13.9
2018-May-21 04:19 293 13.9
2018-May-21 04:14 293 13.9
2018-May-21 04:04 293 13.9
2018-May-21 03:59 293 14.4
2018-May-21 03:49 293 14.4
2018-May-21 03:44 293 14.4
2018-May-21 03:29 293 14.4
2018-May-21 03:24 293 14.4
2018-May-21 03:19 293 14.4
2018-May-21 03:09 293 14.4
2018-May-21 03:04 293 14.4
2018-May-21 02:59 293 14.4
2018-May-21 02:54 293 13.9
2018-May-21 02:49 293 13.9
2018-May-21 02:44 293 13.9
2018-May-21 02:34 293 13.9
2018-May-21 02:19 293 13.9
2018-May-21 02:14 293 13.9
2018-May-21 02:09 293 13.9
2018-May-21 02:04 293 13.9
2018-May-21 01:59 293 13.9
2018-May-21 01:49 293 13.9
2018-May-21 01:44 293 14.4
2018-May-21 01:39 293 14.4
2018-May-21 01:29 293 14.4
2018-May-21 01:24 293 14.4
2018-May-21 01:19 293 14.4
2018-May-21 01:14 293 14.4
2018-May-21 01:09 293 14.4
2018-May-21 00:59 293 14.4
2018-May-21 00:54 293 14.4
2018-May-21 00:49 293 14.4
2018-May-21 00:34 292 2 gusting 5 15.0
2018-May-21 00:29 242 2 gusting 4 15.0
2018-May-21 00:24 158 0 gusting 2 15.0
2018-May-21 00:19 150 0 gusting 2 15.0
2018-May-21 00:14 148 15.0
2018-May-21 00:09 148 15.0
2018-May-20 23:59 148 15.0
2018-May-20 23:54 148 15.0
2018-May-20 23:49 148 15.0
2018-May-20 23:44 148 15.0
2018-May-20 23:29 148 15.6
2018-May-20 23:24 148 15.6
2018-May-20 23:19 148 15.6
2018-May-20 23:09 148 15.6
2018-May-20 23:04 148 16.1
2018-May-20 22:59 148 16.1
2018-May-20 22:49 148 16.1
2018-May-20 22:44 148 0 gusting 4 16.1
2018-May-20 22:39 148 3 gusting 4 16.1
2018-May-20 22:29 148 0 gusting 2 16.1
2018-May-20 22:19 148 1 gusting 2 16.1
2018-May-20 22:14 148 16.1
2018-May-20 22:04 148 16.1
2018-May-20 21:59 147 16.1
2018-May-20 21:54 147 16.1
2018-May-20 21:49 147 16.1
2018-May-20 21:44 147 16.1
2018-May-20 21:39 136 16.1
2018-May-20 21:34 136 16.1
2018-May-20 21:29 136 16.1
2018-May-20 21:24 136 16.1
2018-May-20 21:19 136 16.1
2018-May-20 20:59 136 16.1
2018-May-20 20:54 136 16.7
2018-May-20 20:44 136 16.7
2018-May-20 20:34 136 17.2
2018-May-20 20:24 136 17.2
2018-May-20 20:19 136 17.2
2018-May-20 20:14 136 17.2
2018-May-20 19:49 135 17.8
2018-May-20 19:39 135 17.8
2018-May-20 19:34 135 17.8
2018-May-20 19:29 135 17.8
2018-May-20 19:24 135 17.8
2018-May-20 19:19 135 17.8
2018-May-20 19:14 135 17.8
2018-May-20 19:04 135 18.3
2018-May-20 18:59 135 18.3
2018-May-20 18:54 135 18.3
2018-May-20 18:49 135 18.3
2018-May-20 18:44 135 18.3
2018-May-20 18:39 135 18.3
2018-May-20 18:34 135 18.9
2018-May-20 18:14 134 18.9
2018-May-20 18:09 134 18.3
2018-May-20 18:04 134 18.3
2018-May-20 17:54 134 2 gusting 2 18.3
2018-May-20 17:49 134 1 gusting 2 18.3
2018-May-20 17:44 134 0 gusting 1 18.3
2018-May-20 17:39 134 18.3
2018-May-20 17:34 134 4 gusting 5 18.3
2018-May-20 17:14 136 3 gusting 5 18.9
2018-May-20 17:09 137 4 gusting 6 18.9
2018-May-20 17:04 137 4 gusting 6 18.9
2018-May-20 16:59 138 4 gusting 6 18.9
2018-May-20 16:54 130 2 gusting 5 18.9
2018-May-20 16:44 139 5 gusting 7 18.9
2018-May-20 16:24 144 2 gusting 8 19.4
2018-May-20 16:19 140 5 gusting 6 19.4
2018-May-20 16:09 138 2 gusting 6 19.4
2018-May-20 16:04 149 4 gusting 6 19.4
2018-May-20 15:54 130 4 gusting 6 19.4
2018-May-20 15:44 107 6 gusting 8 19.4
2018-May-20 15:34 137 5 gusting 8 18.9
2018-May-20 15:29 154 3 gusting 8 18.9
2018-May-20 15:19 133 6 gusting 11 18.3
2018-May-20 15:14 145 8 gusting 13 18.3
2018-May-20 15:09 141 6 gusting 13 18.3
2018-May-20 14:59 137 7 gusting 13 18.9
2018-May-20 14:54 123 6 gusting 11 18.9
2018-May-20 14:49 129 7 gusting 14 18.9
2018-May-20 14:39 127 7 gusting 13 18.9
2018-May-20 14:34 131 7 gusting 13 18.9
2018-May-20 14:24 138 6 gusting 13 20.0
2018-May-20 14:19 127 5 gusting 10 20.0
2018-May-20 14:14 124 8 gusting 14 20.0
2018-May-20 14:09 137 3 gusting 13 20.0